sensor_id;sensor_type;location;lat;lon;timestamp;temperature;humidity
50690;DHT22;71367;48.298;11.238;2024-02-04T00:11:27;5.70;99.90
50690;DHT22;71367;48.298;11.238;2024-02-04T00:26:31;5.70;99.90
50690;DHT22;71367;48.298;11.238;2024-02-04T00:41:35;5.60;99.90
50690;DHT22;71367;48.298;11.238;2024-02-04T00:56:38;5.60;99.90
50690;DHT22;71367;48.298;11.238;2024-02-04T01:11:41;5.50;99.90
50690;DHT22;71367;48.298;11.238;2024-02-04T01:26:45;5.30;99.90
50690;DHT22;71367;48.298;11.238;2024-02-04T01:41:48;5.10;99.90
50690;DHT22;71367;48.298;11.238;2024-02-04T01:56:53;5.10;99.90
50690;DHT22;71367;48.298;11.238;2024-02-04T02:12:03;5.10;99.90
50690;DHT22;71367;48.298;11.238;2024-02-04T02:27:14;5.10;99.90
50690;DHT22;71367;48.298;11.238;2024-02-04T02:42:20;5.00;99.90
50690;DHT22;71367;48.298;11.238;2024-02-04T02:57:26;5.00;99.90
50690;DHT22;71367;48.298;11.238;2024-02-04T03:12:30;5.00;99.90
50690;DHT22;71367;48.298;11.238;2024-02-04T03:27:34;5.00;99.90
50690;DHT22;71367;48.298;11.238;2024-02-04T03:42:38;5.00;99.90
50690;DHT22;71367;48.298;11.238;2024-02-04T03:57:43;5.10;99.90
50690;DHT22;71367;48.298;11.238;2024-02-04T04:12:47;5.20;99.90
50690;DHT22;71367;48.298;11.238;2024-02-04T04:27:51;5.30;99.90
50690;DHT22;71367;48.298;11.238;2024-02-04T04:42:55;5.30;99.90
50690;DHT22;71367;48.298;11.238;2024-02-04T04:58:00;5.30;99.90
50690;DHT22;71367;48.298;11.238;2024-02-04T05:13:07;5.30;99.90
50690;DHT22;71367;48.298;11.238;2024-02-04T05:28:11;5.30;99.90
50690;DHT22;71367;48.298;11.238;2024-02-04T05:43:15;5.20;99.90
50690;DHT22;71367;48.298;11.238;2024-02-04T05:58:18;4.90;99.90
50690;DHT22;71367;48.298;11.238;2024-02-04T06:13:21;4.90;99.90
50690;DHT22;71367;48.298;11.238;2024-02-04T06:28:26;4.90;99.90
50690;DHT22;71367;48.298;11.238;2024-02-04T06:43:30;5.00;99.90
50690;DHT22;71367;48.298;11.238;2024-02-04T09:19:51;6.20;99.90
50690;DHT22;71367;48.298;11.238;2024-02-04T11:40:22;8.10;99.90
50690;DHT22;71367;48.298;11.238;2024-02-04T11:55:57;8.20;99.90
50690;DHT22;71367;48.298;11.238;2024-02-04T12:11:16;8.50;99.90
50690;DHT22;71367;48.298;11.238;2024-02-04T12:26:43;8.50;99.90
50690;DHT22;71367;48.298;11.238;2024-02-04T13:45:10;9.20;99.90
50690;DHT22;71367;48.298;11.238;2024-02-04T14:00:45;9.20;99.90
50690;DHT22;71367;48.298;11.238;2024-02-04T14:16:06;9.20;99.90
50690;DHT22;71367;48.298;11.238;2024-02-04T14:31:39;9.10;99.90
50690;DHT22;71367;48.298;11.238;2024-02-04T14:46:44;9.10;99.90
50690;DHT22;71367;48.298;11.238;2024-02-04T15:01:51;9.10;99.90
50690;DHT22;71367;48.298;11.238;2024-02-04T15:16:56;9.20;99.90
50690;DHT22;71367;48.298;11.238;2024-02-04T15:32:03;9.20;99.90
50690;DHT22;71367;48.298;11.238;2024-02-04T15:47:08;9.30;99.90
50690;DHT22;71367;48.298;11.238;2024-02-04T16:02:15;9.20;99.90
50690;DHT22;71367;48.298;11.238;2024-02-04T16:17:20;9.10;99.90
50690;DHT22;71367;48.298;11.238;2024-02-04T16:32:24;8.90;99.90
50690;DHT22;71367;48.298;11.238;2024-02-04T16:47:28;8.70;99.90
50690;DHT22;71367;48.298;11.238;2024-02-04T17:02:34;8.60;99.90
50690;DHT22;71367;48.298;11.238;2024-02-04T17:17:40;8.50;99.90
50690;DHT22;71367;48.298;11.238;2024-02-04T17:32:46;8.40;99.90
50690;DHT22;71367;48.298;11.238;2024-02-04T17:47:54;8.30;99.90
50690;DHT22;71367;48.298;11.238;2024-02-04T18:02:58;8.20;99.90
50690;DHT22;71367;48.298;11.238;2024-02-04T18:18:02;8.00;99.90
50690;DHT22;71367;48.298;11.238;2024-02-04T18:33:06;7.90;99.90
50690;DHT22;71367;48.298;11.238;2024-02-04T18:48:10;7.70;99.90
50690;DHT22;71367;48.298;11.238;2024-02-04T19:03:14;7.60;99.90
50690;DHT22;71367;48.298;11.238;2024-02-04T19:18:19;7.50;99.90
50690;DHT22;71367;48.298;11.238;2024-02-04T19:33:23;7.40;99.90
50690;DHT22;71367;48.298;11.238;2024-02-04T19:48:27;7.30;99.90
50690;DHT22;71367;48.298;11.238;2024-02-04T20:03:31;7.30;99.90
50690;DHT22;71367;48.298;11.238;2024-02-04T20:18:35;7.30;99.90
50690;DHT22;71367;48.298;11.238;2024-02-04T20:33:39;7.20;99.90
50690;DHT22;71367;48.298;11.238;2024-02-04T20:48:45;7.00;99.90
50690;DHT22;71367;48.298;11.238;2024-02-04T21:03:49;6.90;99.90
50690;DHT22;71367;48.298;11.238;2024-02-04T21:18:54;6.80;99.90
50690;DHT22;71367;48.298;11.238;2024-02-04T21:33:57;6.80;99.90
50690;DHT22;71367;48.298;11.238;2024-02-04T21:49:01;6.80;99.90
50690;DHT22;71367;48.298;11.238;2024-02-04T22:04:05;6.70;99.90
50690;DHT22;71367;48.298;11.238;2024-02-04T22:19:09;6.70;99.90
50690;DHT22;71367;48.298;11.238;2024-02-04T22:34:14;6.80;99.90
50690;DHT22;71367;48.298;11.238;2024-02-04T22:49:18;6.90;99.90
50690;DHT22;71367;48.298;11.238;2024-02-04T23:19:59;6.80;99.90
50690;DHT22;71367;48.298;11.238;2024-02-04T23:35:06;6.90;99.90
50690;DHT22;71367;48.298;11.238;2024-02-04T23:50:11;7.00;99.90
